sensor_id;sensor_type;location;lat;lon;timestamp;P1;durP1;ratioP1;P2;durP2;ratioP2
73239;SDS011;61452;40.054;4.110;2024-02-21T00:04:11;9.98;;;2.35;;
73239;SDS011;61452;40.054;4.110;2024-02-21T00:09:14;12.30;;;2.63;;
73239;SDS011;61452;40.054;4.110;2024-02-21T00:14:16;10.63;;;2.78;;
73239;SDS011;61452;40.054;4.110;2024-02-21T00:19:18;9.43;;;2.58;;
73239;SDS011;61452;40.054;4.110;2024-02-21T00:24:21;11.57;;;3.38;;
73239;SDS011;61452;40.054;4.110;2024-02-21T00:29:23;8.32;;;2.40;;
73239;SDS011;61452;40.054;4.110;2024-02-21T00:34:25;9.73;;;3.38;;
73239;SDS011;61452;40.054;4.110;2024-02-21T00:39:27;11.73;;;2.80;;
73239;SDS011;61452;40.054;4.110;2024-02-21T00:44:29;12.35;;;2.58;;
73239;SDS011;61452;40.054;4.110;2024-02-21T00:49:31;11.57;;;2.45;;
73239;SDS011;61452;40.054;4.110;2024-02-21T00:54:33;10.88;;;2.75;;
73239;SDS011;61452;40.054;4.110;2024-02-21T00:59:50;11.45;;;2.55;;
73239;SDS011;61452;40.054;4.110;2024-02-21T01:04:53;11.50;;;1.80;;
73239;SDS011;61452;40.054;4.110;2024-02-21T01:09:55;12.05;;;2.33;;
73239;SDS011;61452;40.054;4.110;2024-02-21T01:14:57;9.00;;;2.47;;
73239;SDS011;61452;40.054;4.110;2024-02-21T01:19:59;9.43;;;2.35;;
73239;SDS011;61452;40.054;4.110;2024-02-21T01:25:02;8.82;;;2.33;;
73239;SDS011;61452;40.054;4.110;2024-02-21T01:30:04;8.05;;;2.03;;
73239;SDS011;61452;40.054;4.110;2024-02-21T01:35:07;9.38;;;1.98;;
73239;SDS011;61452;40.054;4.110;2024-02-21T01:40:10;7.40;;;2.00;;
73239;SDS011;61452;40.054;4.110;2024-02-21T01:45:12;10.40;;;1.95;;
73239;SDS011;61452;40.054;4.110;2024-02-21T01:50:19;10.75;;;2.72;;
73239;SDS011;61452;40.054;4.110;2024-02-21T01:55:22;9.27;;;2.15;;
73239;SDS011;61452;40.054;4.110;2024-02-21T02:00:24;9.07;;;1.92;;
73239;SDS011;61452;40.054;4.110;2024-02-21T02:05:26;7.30;;;2.08;;
73239;SDS011;61452;40.054;4.110;2024-02-21T02:10:29;10.18;;;1.90;;
73239;SDS011;61452;40.054;4.110;2024-02-21T02:20:46;8.98;;;1.80;;
73239;SDS011;61452;40.054;4.110;2024-02-21T02:25:49;8.57;;;2.33;;
73239;SDS011;61452;40.054;4.110;2024-02-21T02:30:54;8.75;;;1.83;;
73239;SDS011;61452;40.054;4.110;2024-02-21T02:35:56;8.95;;;2.28;;
73239;SDS011;61452;40.054;4.110;2024-02-21T02:40:59;9.85;;;2.10;;
73239;SDS011;61452;40.054;4.110;2024-02-21T02:46:01;8.73;;;1.83;;
73239;SDS011;61452;40.054;4.110;2024-02-21T02:51:03;4.93;;;1.70;;
73239;SDS011;61452;40.054;4.110;2024-02-21T02:56:06;8.20;;;2.33;;
73239;SDS011;61452;40.054;4.110;2024-02-21T03:01:08;9.27;;;1.90;;
73239;SDS011;61452;40.054;4.110;2024-02-21T03:06:11;7.85;;;1.85;;
73239;SDS011;61452;40.054;4.110;2024-02-21T03:11:13;5.72;;;2.13;;
73239;SDS011;61452;40.054;4.110;2024-02-21T03:16:16;7.50;;;1.60;;
73239;SDS011;61452;40.054;4.110;2024-02-21T03:21:19;10.02;;;2.40;;
73239;SDS011;61452;40.054;4.110;2024-02-21T03:26:21;6.70;;;1.75;;
73239;SDS011;61452;40.054;4.110;2024-02-21T03:31:23;6.63;;;1.60;;
73239;SDS011;61452;40.054;4.110;2024-02-21T03:36:31;3.40;;;1.48;;
73239;SDS011;61452;40.054;4.110;2024-02-21T03:41:33;7.60;;;1.80;;
73239;SDS011;61452;40.054;4.110;2024-02-21T03:46:35;6.60;;;2.28;;
73239;SDS011;61452;40.054;4.110;2024-02-21T03:51:37;7.15;;;1.60;;
73239;SDS011;61452;40.054;4.110;2024-02-21T03:56:40;3.60;;;1.70;;
73239;SDS011;61452;40.054;4.110;2024-02-21T04:01:42;8.63;;;1.80;;
73239;SDS011;61452;40.054;4.110;2024-02-21T04:06:50;6.85;;;1.90;;
73239;SDS011;61452;40.054;4.110;2024-02-21T04:11:52;10.90;;;2.13;;
73239;SDS011;61452;40.054;4.110;2024-02-21T04:16:54;8.52;;;2.47;;
73239;SDS011;61452;40.054;4.110;2024-02-21T04:21:57;6.07;;;1.40;;
73239;SDS011;61452;40.054;4.110;2024-02-21T04:26:59;7.45;;;1.75;;
73239;SDS011;61452;40.054;4.110;2024-02-21T04:32:01;5.72;;;1.40;;
73239;SDS011;61452;40.054;4.110;2024-02-21T04:37:04;8.77;;;1.80;;
73239;SDS011;61452;40.054;4.110;2024-02-21T04:42:06;6.00;;;1.38;;
73239;SDS011;61452;40.054;4.110;2024-02-21T04:47:08;9.48;;;2.30;;
73239;SDS011;61452;40.054;4.110;2024-02-21T04:52:10;10.77;;;2.13;;
73239;SDS011;61452;40.054;4.110;2024-02-21T04:57:12;4.75;;;1.33;;
73239;SDS011;61452;40.054;4.110;2024-02-21T05:02:18;9.88;;;2.25;;
73239;SDS011;61452;40.054;4.110;2024-02-21T05:07:24;6.63;;;1.50;;
73239;SDS011;61452;40.054;4.110;2024-02-21T05:12:26;6.82;;;1.73;;
73239;SDS011;61452;40.054;4.110;2024-02-21T05:17:28;6.03;;;1.40;;
73239;SDS011;61452;40.054;4.110;2024-02-21T05:22:30;7.63;;;1.70;;
73239;SDS011;61452;40.054;4.110;2024-02-21T05:27:32;8.18;;;2.13;;
73239;SDS011;61452;40.054;4.110;2024-02-21T05:32:34;8.30;;;1.60;;
73239;SDS011;61452;40.054;4.110;2024-02-21T05:37:36;6.80;;;1.55;;
73239;SDS011;61452;40.054;4.110;2024-02-21T05:42:39;4.18;;;1.40;;
73239;SDS011;61452;40.054;4.110;2024-02-21T05:47:41;4.47;;;1.08;;
73239;SDS011;61452;40.054;4.110;2024-02-21T05:52:43;7.10;;;1.40;;
73239;SDS011;61452;40.054;4.110;2024-02-21T05:57:45;4.18;;;1.33;;
73239;SDS011;61452;40.054;4.110;2024-02-21T06:02:48;6.18;;;1.70;;
73239;SDS011;61452;40.054;4.110;2024-02-21T06:07:50;6.40;;;1.58;;
73239;SDS011;61452;40.054;4.110;2024-02-21T06:12:52;6.03;;;1.30;;
73239;SDS011;61452;40.054;4.110;2024-02-21T06:17:54;9.02;;;2.38;;
73239;SDS011;61452;40.054;4.110;2024-02-21T06:22:56;4.30;;;1.50;;
73239;SDS011;61452;40.054;4.110;2024-02-21T06:27:59;6.60;;;1.58;;
73239;SDS011;61452;40.054;4.110;2024-02-21T06:33:01;4.38;;;1.10;;
73239;SDS011;61452;40.054;4.110;2024-02-21T06:38:04;5.75;;;1.50;;
73239;SDS011;61452;40.054;4.110;2024-02-21T06:43:06;5.90;;;1.85;;
73239;SDS011;61452;40.054;4.110;2024-02-21T06:48:09;4.78;;;1.13;;
73239;SDS011;61452;40.054;4.110;2024-02-21T06:53:11;6.90;;;2.55;;
73239;SDS011;61452;40.054;4.110;2024-02-21T06:58:13;5.30;;;1.42;;
73239;SDS011;61452;40.054;4.110;2024-02-21T07:03:17;4.43;;;1.13;;
73239;SDS011;61452;40.054;4.110;2024-02-21T07:08:19;4.82;;;1.20;;
73239;SDS011;61452;40.054;4.110;2024-02-21T07:13:21;5.00;;;1.30;;
73239;SDS011;61452;40.054;4.110;2024-02-21T07:18:24;5.90;;;1.40;;
73239;SDS011;61452;40.054;4.110;2024-02-21T07:23:29;4.20;;;1.33;;
73239;SDS011;61452;40.054;4.110;2024-02-21T07:28:31;7.07;;;2.20;;
73239;SDS011;61452;40.054;4.110;2024-02-21T07:33:34;6.95;;;1.23;;
73239;SDS011;61452;40.054;4.110;2024-02-21T07:38:37;6.53;;;1.13;;
73239;SDS011;61452;40.054;4.110;2024-02-21T07:43:39;7.15;;;1.40;;
73239;SDS011;61452;40.054;4.110;2024-02-21T07:48:41;7.85;;;1.50;;
73239;SDS011;61452;40.054;4.110;2024-02-21T07:53:44;5.22;;;1.40;;
73239;SDS011;61452;40.054;4.110;2024-02-21T07:58:47;3.45;;;1.20;;
73239;SDS011;61452;40.054;4.110;2024-02-21T08:03:49;4.53;;;1.27;;
73239;SDS011;61452;40.054;4.110;2024-02-21T08:08:51;4.45;;;1.30;;
73239;SDS011;61452;40.054;4.110;2024-02-21T08:13:54;4.40;;;1.10;;
73239;SDS011;61452;40.054;4.110;2024-02-21T08:18:56;5.38;;;1.20;;
73239;SDS011;61452;40.054;4.110;2024-02-21T08:23:59;7.47;;;1.85;;
73239;SDS011;61452;40.054;4.110;2024-02-21T08:29:01;5.38;;;1.02;;
73239;SDS011;61452;40.054;4.110;2024-02-21T08:34:04;5.97;;;1.60;;
73239;SDS011;61452;40.054;4.110;2024-02-21T08:39:06;6.40;;;1.10;;
73239;SDS011;61452;40.054;4.110;2024-02-21T08:44:11;7.60;;;2.13;;
73239;SDS011;61452;40.054;4.110;2024-02-21T08:49:13;3.70;;;0.90;;
73239;SDS011;61452;40.054;4.110;2024-02-21T08:54:15;4.47;;;1.30;;
73239;SDS011;61452;40.054;4.110;2024-02-21T08:59:18;3.47;;;0.90;;
73239;SDS011;61452;40.054;4.110;2024-02-21T09:04:20;5.22;;;0.98;;
73239;SDS011;61452;40.054;4.110;2024-02-21T09:09:23;3.28;;;1.10;;
73239;SDS011;61452;40.054;4.110;2024-02-21T09:14:28;5.50;;;1.10;;
73239;SDS011;61452;40.054;4.110;2024-02-21T09:19:30;3.53;;;0.90;;
73239;SDS011;61452;40.054;4.110;2024-02-21T09:24:32;3.10;;;1.10;;
73239;SDS011;61452;40.054;4.110;2024-02-21T09:29:34;5.10;;;1.13;;
73239;SDS011;61452;40.054;4.110;2024-02-21T09:34:37;3.03;;;1.00;;
73239;SDS011;61452;40.054;4.110;2024-02-21T09:39:41;5.40;;;1.10;;
73239;SDS011;61452;40.054;4.110;2024-02-21T09:44:43;4.03;;;1.08;;
73239;SDS011;61452;40.054;4.110;2024-02-21T09:49:47;4.85;;;1.00;;
73239;SDS011;61452;40.054;4.110;2024-02-21T09:54:49;4.10;;;1.05;;
73239;SDS011;61452;40.054;4.110;2024-02-21T09:59:54;1.92;;;1.00;;
73239;SDS011;61452;40.054;4.110;2024-02-21T10:10:00;2.42;;;0.85;;
73239;SDS011;61452;40.054;4.110;2024-02-21T10:15:04;3.40;;;0.77;;
73239;SDS011;61452;40.054;4.110;2024-02-21T10:20:08;2.58;;;0.90;;
73239;SDS011;61452;40.054;4.110;2024-02-21T10:25:12;2.80;;;0.75;;
73239;SDS011;61452;40.054;4.110;2024-02-21T10:30:14;2.80;;;1.23;;
73239;SDS011;61452;40.054;4.110;2024-02-21T10:35:25;4.53;;;1.00;;
73239;SDS011;61452;40.054;4.110;2024-02-21T10:40:29;4.00;;;1.05;;
73239;SDS011;61452;40.054;4.110;2024-02-21T10:45:35;2.65;;;1.00;;
73239;SDS011;61452;40.054;4.110;2024-02-21T11:01:28;3.42;;;1.40;;
73239;SDS011;61452;40.054;4.110;2024-02-21T11:06:34;2.38;;;0.73;;
73239;SDS011;61452;40.054;4.110;2024-02-21T11:11:38;2.58;;;0.90;;
73239;SDS011;61452;40.054;4.110;2024-02-21T11:16:42;2.10;;;0.70;;
73239;SDS011;61452;40.054;4.110;2024-02-21T11:21:45;4.15;;;1.00;;
73239;SDS011;61452;40.054;4.110;2024-02-21T11:26:47;3.05;;;0.77;;
73239;SDS011;61452;40.054;4.110;2024-02-21T11:31:50;3.40;;;0.82;;
73239;SDS011;61452;40.054;4.110;2024-02-21T11:36:53;2.13;;;0.80;;
73239;SDS011;61452;40.054;4.110;2024-02-21T11:42:02;2.25;;;0.73;;
73239;SDS011;61452;40.054;4.110;2024-02-21T11:47:06;2.75;;;0.98;;
73239;SDS011;61452;40.054;4.110;2024-02-21T11:52:09;2.30;;;0.60;;
73239;SDS011;61452;40.054;4.110;2024-02-21T11:57:11;3.40;;;0.95;;
73239;SDS011;61452;40.054;4.110;2024-02-21T12:02:13;2.97;;;0.90;;
73239;SDS011;61452;40.054;4.110;2024-02-21T12:07:17;1.48;;;0.50;;
73239;SDS011;61452;40.054;4.110;2024-02-21T12:12:20;2.40;;;0.70;;
73239;SDS011;61452;40.054;4.110;2024-02-21T12:17:22;1.30;;;0.77;;
73239;SDS011;61452;40.054;4.110;2024-02-21T12:22:25;2.35;;;0.80;;
73239;SDS011;61452;40.054;4.110;2024-02-21T12:27:28;1.88;;;0.90;;
73239;SDS011;61452;40.054;4.110;2024-02-21T12:32:30;2.13;;;0.65;;
73239;SDS011;61452;40.054;4.110;2024-02-21T12:37:33;2.70;;;0.80;;
73239;SDS011;61452;40.054;4.110;2024-02-21T12:42:39;2.15;;;0.77;;
73239;SDS011;61452;40.054;4.110;2024-02-21T12:47:41;2.13;;;0.80;;
73239;SDS011;61452;40.054;4.110;2024-02-21T12:52:43;2.75;;;0.80;;
73239;SDS011;61452;40.054;4.110;2024-02-21T12:57:45;3.20;;;0.70;;
73239;SDS011;61452;40.054;4.110;2024-02-21T13:02:47;1.67;;;0.57;;
73239;SDS011;61452;40.054;4.110;2024-02-21T13:07:49;2.13;;;0.80;;
73239;SDS011;61452;40.054;4.110;2024-02-21T13:12:52;2.45;;;0.95;;
73239;SDS011;61452;40.054;4.110;2024-02-21T13:17:55;1.65;;;0.60;;
73239;SDS011;61452;40.054;4.110;2024-02-21T13:22:58;2.22;;;0.82;;
73239;SDS011;61452;40.054;4.110;2024-02-21T13:28:00;2.25;;;0.70;;
73239;SDS011;61452;40.054;4.110;2024-02-21T13:33:05;2.53;;;0.63;;
73239;SDS011;61452;40.054;4.110;2024-02-21T13:38:08;3.00;;;1.40;;
73239;SDS011;61452;40.054;4.110;2024-02-21T13:43:11;2.35;;;0.60;;
73239;SDS011;61452;40.054;4.110;2024-02-21T13:48:14;4.07;;;0.80;;
73239;SDS011;61452;40.054;4.110;2024-02-21T13:53:16;2.08;;;0.75;;
73239;SDS011;61452;40.054;4.110;2024-02-21T13:58:23;2.17;;;0.57;;
73239;SDS011;61452;40.054;4.110;2024-02-21T14:03:25;3.28;;;1.13;;
73239;SDS011;61452;40.054;4.110;2024-02-21T14:08:27;1.95;;;0.85;;
73239;SDS011;61452;40.054;4.110;2024-02-21T14:13:29;2.92;;;0.52;;
73239;SDS011;61452;40.054;4.110;2024-02-21T14:18:32;2.20;;;0.63;;
73239;SDS011;61452;40.054;4.110;2024-02-21T14:23:34;1.40;;;0.60;;
73239;SDS011;61452;40.054;4.110;2024-02-21T14:28:36;1.48;;;0.80;;
73239;SDS011;61452;40.054;4.110;2024-02-21T14:33:38;1.75;;;0.65;;
73239;SDS011;61452;40.054;4.110;2024-02-21T14:38:41;2.33;;;0.65;;
73239;SDS011;61452;40.054;4.110;2024-02-21T14:43:44;2.75;;;0.80;;
73239;SDS011;61452;40.054;4.110;2024-02-21T14:48:47;3.17;;;0.93;;
73239;SDS011;61452;40.054;4.110;2024-02-21T14:53:49;4.00;;;0.82;;
73239;SDS011;61452;40.054;4.110;2024-02-21T14:58:51;1.35;;;0.60;;
73239;SDS011;61452;40.054;4.110;2024-02-21T15:03:58;2.13;;;0.80;;
73239;SDS011;61452;40.054;4.110;2024-02-21T15:09:00;2.58;;;0.82;;
73239;SDS011;61452;40.054;4.110;2024-02-21T15:14:02;1.98;;;0.50;;
73239;SDS011;61452;40.054;4.110;2024-02-21T15:19:04;3.70;;;0.90;;
73239;SDS011;61452;40.054;4.110;2024-02-21T15:24:06;3.63;;;0.77;;
73239;SDS011;61452;40.054;4.110;2024-02-21T15:29:08;2.65;;;0.60;;
73239;SDS011;61452;40.054;4.110;2024-02-21T15:34:11;3.80;;;0.82;;
73239;SDS011;61452;40.054;4.110;2024-02-21T15:39:13;2.30;;;0.70;;
73239;SDS011;61452;40.054;4.110;2024-02-21T15:44:15;1.55;;;0.63;;
73239;SDS011;61452;40.054;4.110;2024-02-21T15:49:17;1.63;;;0.70;;
73239;SDS011;61452;40.054;4.110;2024-02-21T15:54:20;2.13;;;0.85;;
73239;SDS011;61452;40.054;4.110;2024-02-21T15:59:27;1.30;;;0.60;;
73239;SDS011;61452;40.054;4.110;2024-02-21T16:04:29;2.00;;;0.60;;
73239;SDS011;61452;40.054;4.110;2024-02-21T16:09:32;2.50;;;0.90;;
73239;SDS011;61452;40.054;4.110;2024-02-21T16:14:34;1.20;;;0.57;;
73239;SDS011;61452;40.054;4.110;2024-02-21T16:19:39;1.65;;;0.70;;
73239;SDS011;61452;40.054;4.110;2024-02-21T16:24:41;1.10;;;0.60;;
73239;SDS011;61452;40.054;4.110;2024-02-21T16:29:43;2.55;;;0.80;;
73239;SDS011;61452;40.054;4.110;2024-02-21T16:34:45;1.55;;;0.52;;
73239;SDS011;61452;40.054;4.110;2024-02-21T16:39:47;2.10;;;0.70;;
73239;SDS011;61452;40.054;4.110;2024-02-21T16:44:49;2.10;;;0.70;;
73239;SDS011;61452;40.054;4.110;2024-02-21T16:49:52;1.58;;;0.65;;
73239;SDS011;61452;40.054;4.110;2024-02-21T16:54:54;0.93;;;0.50;;
73239;SDS011;61452;40.054;4.110;2024-02-21T16:59:58;1.83;;;0.88;;
73239;SDS011;61452;40.054;4.110;2024-02-21T17:05:00;1.27;;;0.43;;
73239;SDS011;61452;40.054;4.110;2024-02-21T17:10:03;2.45;;;0.70;;
73239;SDS011;61452;40.054;4.110;2024-02-21T17:15:08;1.75;;;0.55;;
73239;SDS011;61452;40.054;4.110;2024-02-21T17:20:11;2.20;;;0.80;;
73239;SDS011;61452;40.054;4.110;2024-02-21T17:25:15;1.92;;;0.60;;
73239;SDS011;61452;40.054;4.110;2024-02-21T17:30:17;0.93;;;0.40;;
73239;SDS011;61452;40.054;4.110;2024-02-21T17:35:19;1.65;;;0.70;;
73239;SDS011;61452;40.054;4.110;2024-02-21T17:40:21;1.25;;;0.63;;
73239;SDS011;61452;40.054;4.110;2024-02-21T17:45:23;1.98;;;0.80;;
73239;SDS011;61452;40.054;4.110;2024-02-21T17:50:25;1.25;;;0.47;;
73239;SDS011;61452;40.054;4.110;2024-02-21T17:55:28;1.83;;;0.70;;
73239;SDS011;61452;40.054;4.110;2024-02-21T18:00:31;1.60;;;0.70;;
73239;SDS011;61452;40.054;4.110;2024-02-21T18:05:33;1.27;;;0.70;;
73239;SDS011;61452;40.054;4.110;2024-02-21T18:10:35;2.33;;;0.80;;
73239;SDS011;61452;40.054;4.110;2024-02-21T18:20:41;1.73;;;0.70;;
73239;SDS011;61452;40.054;4.110;2024-02-21T18:25:44;1.85;;;0.60;;
73239;SDS011;61452;40.054;4.110;2024-02-21T18:30:48;1.73;;;0.70;;
73239;SDS011;61452;40.054;4.110;2024-02-21T18:35:50;1.42;;;0.55;;
73239;SDS011;61452;40.054;4.110;2024-02-21T18:40:52;1.75;;;0.70;;
73239;SDS011;61452;40.054;4.110;2024-02-21T18:45:55;1.17;;;0.60;;
73239;SDS011;61452;40.054;4.110;2024-02-21T18:50:58;1.95;;;0.47;;
73239;SDS011;61452;40.054;4.110;2024-02-21T18:56:00;1.60;;;0.68;;
73239;SDS011;61452;40.054;4.110;2024-02-21T19:01:02;1.77;;;0.50;;
73239;SDS011;61452;40.054;4.110;2024-02-21T19:06:05;1.50;;;0.60;;
73239;SDS011;61452;40.054;4.110;2024-02-21T19:11:07;1.33;;;0.60;;
73239;SDS011;61452;40.054;4.110;2024-02-21T19:16:11;1.98;;;0.40;;
73239;SDS011;61452;40.054;4.110;2024-02-21T19:21:14;1.55;;;0.73;;
73239;SDS011;61452;40.054;4.110;2024-02-21T19:26:16;1.67;;;0.60;;
73239;SDS011;61452;40.054;4.110;2024-02-21T19:31:18;1.65;;;0.57;;
73239;SDS011;61452;40.054;4.110;2024-02-21T19:36:20;1.23;;;0.43;;
73239;SDS011;61452;40.054;4.110;2024-02-21T19:41:23;1.05;;;0.57;;
73239;SDS011;61452;40.054;4.110;2024-02-21T19:46:25;2.60;;;0.63;;
73239;SDS011;61452;40.054;4.110;2024-02-21T19:51:28;1.35;;;0.50;;
73239;SDS011;61452;40.054;4.110;2024-02-21T19:56:30;1.38;;;0.70;;
73239;SDS011;61452;40.054;4.110;2024-02-21T20:01:33;1.52;;;0.50;;
73239;SDS011;61452;40.054;4.110;2024-02-21T20:06:36;1.05;;;0.50;;
73239;SDS011;61452;40.054;4.110;2024-02-21T20:11:38;0.90;;;0.70;;
73239;SDS011;61452;40.054;4.110;2024-02-21T20:16:42;1.90;;;0.57;;
73239;SDS011;61452;40.054;4.110;2024-02-21T20:21:46;1.48;;;0.50;;
73239;SDS011;61452;40.054;4.110;2024-02-21T20:26:48;2.25;;;0.60;;
73239;SDS011;61452;40.054;4.110;2024-02-21T20:31:50;1.10;;;0.50;;
73239;SDS011;61452;40.054;4.110;2024-02-21T20:36:53;2.05;;;0.68;;
73239;SDS011;61452;40.054;4.110;2024-02-21T20:41:55;2.35;;;0.50;;
73239;SDS011;61452;40.054;4.110;2024-02-21T20:46:58;1.98;;;0.60;;
73239;SDS011;61452;40.054;4.110;2024-02-21T20:52:00;2.15;;;0.77;;
73239;SDS011;61452;40.054;4.110;2024-02-21T20:57:02;1.13;;;0.40;;
73239;SDS011;61452;40.054;4.110;2024-02-21T21:02:05;1.10;;;0.52;;
73239;SDS011;61452;40.054;4.110;2024-02-21T21:07:07;1.40;;;0.55;;
73239;SDS011;61452;40.054;4.110;2024-02-21T21:12:09;0.88;;;0.40;;
73239;SDS011;61452;40.054;4.110;2024-02-21T21:17:12;2.90;;;0.70;;
73239;SDS011;61452;40.054;4.110;2024-02-21T21:22:15;3.42;;;0.60;;
73239;SDS011;61452;40.054;4.110;2024-02-21T21:27:17;2.15;;;0.80;;
73239;SDS011;61452;40.054;4.110;2024-02-21T21:32:19;2.83;;;0.65;;
73239;SDS011;61452;40.054;4.110;2024-02-21T21:37:21;2.08;;;0.60;;
73239;SDS011;61452;40.054;4.110;2024-02-21T21:42:23;1.63;;;0.65;;
73239;SDS011;61452;40.054;4.110;2024-02-21T21:47:25;2.63;;;0.80;;
73239;SDS011;61452;40.054;4.110;2024-02-21T21:52:27;2.28;;;0.70;;
73239;SDS011;61452;40.054;4.110;2024-02-21T21:57:29;1.30;;;0.80;;
73239;SDS011;61452;40.054;4.110;2024-02-21T22:02:31;1.50;;;0.50;;
73239;SDS011;61452;40.054;4.110;2024-02-21T22:07:34;2.05;;;0.82;;
73239;SDS011;61452;40.054;4.110;2024-02-21T22:12:37;1.13;;;0.60;;
73239;SDS011;61452;40.054;4.110;2024-02-21T22:17:39;1.33;;;0.55;;
73239;SDS011;61452;40.054;4.110;2024-02-21T22:22:42;2.42;;;0.82;;
73239;SDS011;61452;40.054;4.110;2024-02-21T22:27:44;1.58;;;0.60;;
73239;SDS011;61452;40.054;4.110;2024-02-21T22:32:46;1.77;;;1.00;;
73239;SDS011;61452;40.054;4.110;2024-02-21T22:37:48;0.80;;;0.55;;
73239;SDS011;61452;40.054;4.110;2024-02-21T22:42:50;2.28;;;0.70;;
73239;SDS011;61452;40.054;4.110;2024-02-21T22:47:52;1.77;;;0.70;;
73239;SDS011;61452;40.054;4.110;2024-02-21T22:52:55;2.50;;;0.68;;
73239;SDS011;61452;40.054;4.110;2024-02-21T22:57:57;1.25;;;0.70;;
73239;SDS011;61452;40.054;4.110;2024-02-21T23:02:59;2.78;;;0.70;;
73239;SDS011;61452;40.054;4.110;2024-02-21T23:08:01;2.30;;;0.63;;
73239;SDS011;61452;40.054;4.110;2024-02-21T23:13:03;1.80;;;0.63;;
73239;SDS011;61452;40.054;4.110;2024-02-21T23:18:05;1.50;;;0.55;;
73239;SDS011;61452;40.054;4.110;2024-02-21T23:23:08;1.67;;;0.55;;
73239;SDS011;61452;40.054;4.110;2024-02-21T23:28:10;0.68;;;0.40;;
73239;SDS011;61452;40.054;4.110;2024-02-21T23:33:13;2.33;;;0.55;;
73239;SDS011;61452;40.054;4.110;2024-02-21T23:38:15;1.95;;;0.65;;
73239;SDS011;61452;40.054;4.110;2024-02-21T23:43:17;1.50;;;0.68;;
73239;SDS011;61452;40.054;4.110;2024-02-21T23:48:19;2.55;;;0.73;;
73239;SDS011;61452;40.054;4.110;2024-02-21T23:53:21;1.13;;;0.57;;
73239;SDS011;61452;40.054;4.110;2024-02-21T23:58:23;1.48;;;0.60;;
